sensor_id;sensor_type;location;lat;lon;timestamp;temperature;humidity
4308;DHT22;2167;53.448;9.984;2022-09-09T00:01:56;15.50;44.80
4308;DHT22;2167;53.448;9.984;2022-09-09T00:04:33;15.50;45.20
4308;DHT22;2167;53.448;9.984;2022-09-09T00:07:52;15.50;45.10
4308;DHT22;2167;53.448;9.984;2022-09-09T00:15:27;15.60;44.90
4308;DHT22;2167;53.448;9.984;2022-09-09T00:20:55;15.60;45.10
4308;DHT22;2167;53.448;9.984;2022-09-09T00:23:32;15.60;45.00
4308;DHT22;2167;53.448;9.984;2022-09-09T00:26:29;15.60;44.90
4308;DHT22;2167;53.448;9.984;2022-09-09T00:30:14;15.60;44.80
4308;DHT22;2167;53.448;9.984;2022-09-09T00:32:21;15.60;44.80
4308;DHT22;2167;53.448;9.984;2022-09-09T00:35:38;15.60;44.90
4308;DHT22;2167;53.448;9.984;2022-09-09T00:37:46;15.60;44.80
4308;DHT22;2167;53.448;9.984;2022-09-09T00:40:35;15.60;44.70
4308;DHT22;2167;53.448;9.984;2022-09-09T00:43:20;15.60;44.80
4308;DHT22;2167;53.448;9.984;2022-09-09T00:49:14;15.70;45.00
4308;DHT22;2167;53.448;9.984;2022-09-09T00:54:22;15.70;44.30
4308;DHT22;2167;53.448;9.984;2022-09-09T00:59:55;15.60;44.10
4308;DHT22;2167;53.448;9.984;2022-09-09T01:02:27;15.60;44.10
4308;DHT22;2167;53.448;9.984;2022-09-09T01:05:05;15.60;44.10
4308;DHT22;2167;53.448;9.984;2022-09-09T01:07:32;15.60;44.00
4308;DHT22;2167;53.448;9.984;2022-09-09T01:10:00;15.60;43.00
4308;DHT22;2167;53.448;9.984;2022-09-09T01:15:22;15.50;41.00
4308;DHT22;2167;53.448;9.984;2022-09-09T01:18:02;15.50;41.80
4308;DHT22;2167;53.448;9.984;2022-09-09T01:20:55;15.40;40.70
4308;DHT22;2167;53.448;9.984;2022-09-09T01:26:19;15.30;40.50
4308;DHT22;2167;53.448;9.984;2022-09-09T01:28:48;15.20;40.30
4308;DHT22;2167;53.448;9.984;2022-09-09T01:31:19;15.10;40.60
4308;DHT22;2167;53.448;9.984;2022-09-09T01:33:46;15.10;40.80
4308;DHT22;2167;53.448;9.984;2022-09-09T01:38:52;15.00;40.70
4308;DHT22;2167;53.448;9.984;2022-09-09T01:41:18;15.00;41.30
4308;DHT22;2167;53.448;9.984;2022-09-09T01:43:44;14.90;41.90
4308;DHT22;2167;53.448;9.984;2022-09-09T01:46:11;14.90;42.40
4308;DHT22;2167;53.448;9.984;2022-09-09T01:48:37;14.90;43.30
4308;DHT22;2167;53.448;9.984;2022-09-09T01:51:04;14.90;42.10
4308;DHT22;2167;53.448;9.984;2022-09-09T01:53:29;14.80;41.60
4308;DHT22;2167;53.448;9.984;2022-09-09T01:56:05;14.80;41.50
4308;DHT22;2167;53.448;9.984;2022-09-09T01:59:14;14.80;41.70
4308;DHT22;2167;53.448;9.984;2022-09-09T02:01:58;14.80;41.80
4308;DHT22;2167;53.448;9.984;2022-09-09T02:04:49;14.70;41.60
4308;DHT22;2167;53.448;9.984;2022-09-09T02:07:47;14.70;41.70
4308;DHT22;2167;53.448;9.984;2022-09-09T02:10:30;14.70;41.80
4308;DHT22;2167;53.448;9.984;2022-09-09T02:13:10;14.70;42.20
4308;DHT22;2167;53.448;9.984;2022-09-09T02:15:52;14.60;41.20
4308;DHT22;2167;53.448;9.984;2022-09-09T02:18:26;14.60;40.90
4308;DHT22;2167;53.448;9.984;2022-09-09T02:20:53;14.60;40.80
4308;DHT22;2167;53.448;9.984;2022-09-09T02:23:19;14.60;40.40
4308;DHT22;2167;53.448;9.984;2022-09-09T02:25:46;14.60;40.90
4308;DHT22;2167;53.448;9.984;2022-09-09T02:28:14;14.60;41.20
4308;DHT22;2167;53.448;9.984;2022-09-09T02:30:44;14.60;41.20
4308;DHT22;2167;53.448;9.984;2022-09-09T02:33:12;14.60;41.40
4308;DHT22;2167;53.448;9.984;2022-09-09T02:35:40;14.60;41.60
4308;DHT22;2167;53.448;9.984;2022-09-09T02:38:11;14.60;42.10
4308;DHT22;2167;53.448;9.984;2022-09-09T02:40:37;14.60;41.60
4308;DHT22;2167;53.448;9.984;2022-09-09T02:43:03;14.60;41.70
4308;DHT22;2167;53.448;9.984;2022-09-09T02:45:45;14.60;41.40
4308;DHT22;2167;53.448;9.984;2022-09-09T02:48:24;14.60;41.70
4308;DHT22;2167;53.448;9.984;2022-09-09T02:51:09;14.60;41.50
4308;DHT22;2167;53.448;9.984;2022-09-09T02:56:52;14.60;42.40
4308;DHT22;2167;53.448;9.984;2022-09-09T02:59:21;14.60;42.20
4308;DHT22;2167;53.448;9.984;2022-09-09T03:01:47;14.60;42.30
4308;DHT22;2167;53.448;9.984;2022-09-09T03:04:13;14.60;42.40
4308;DHT22;2167;53.448;9.984;2022-09-09T03:06:38;14.50;41.90
4308;DHT22;2167;53.448;9.984;2022-09-09T03:09:04;14.50;41.10
4308;DHT22;2167;53.448;9.984;2022-09-09T03:11:30;14.40;40.30
4308;DHT22;2167;53.448;9.984;2022-09-09T03:13:56;14.40;40.20
4308;DHT22;2167;53.448;9.984;2022-09-09T03:16:22;14.40;40.60
4308;DHT22;2167;53.448;9.984;2022-09-09T03:18:48;14.40;40.80
4308;DHT22;2167;53.448;9.984;2022-09-09T03:21:15;14.40;40.90
4308;DHT22;2167;53.448;9.984;2022-09-09T03:23:41;14.30;40.60
4308;DHT22;2167;53.448;9.984;2022-09-09T03:26:07;14.30;40.10
4308;DHT22;2167;53.448;9.984;2022-09-09T03:28:32;14.30;39.60
4308;DHT22;2167;53.448;9.984;2022-09-09T03:31:03;14.30;39.10
4308;DHT22;2167;53.448;9.984;2022-09-09T03:33:29;14.20;39.10
4308;DHT22;2167;53.448;9.984;2022-09-09T03:35:55;14.30;39.40
4308;DHT22;2167;53.448;9.984;2022-09-09T03:38:23;14.30;39.70
4308;DHT22;2167;53.448;9.984;2022-09-09T03:40:53;14.30;39.80
4308;DHT22;2167;53.448;9.984;2022-09-09T03:43:21;14.30;40.30
4308;DHT22;2167;53.448;9.984;2022-09-09T03:45:47;14.30;40.80
4308;DHT22;2167;53.448;9.984;2022-09-09T03:48:14;14.30;41.30
4308;DHT22;2167;53.448;9.984;2022-09-09T03:50:48;14.30;41.60
4308;DHT22;2167;53.448;9.984;2022-09-09T03:53:15;14.30;41.90
4308;DHT22;2167;53.448;9.984;2022-09-09T03:55:45;14.20;41.90
4308;DHT22;2167;53.448;9.984;2022-09-09T03:58:11;14.30;42.10
4308;DHT22;2167;53.448;9.984;2022-09-09T04:00:37;14.20;41.70
4308;DHT22;2167;53.448;9.984;2022-09-09T04:03:10;14.20;40.80
4308;DHT22;2167;53.448;9.984;2022-09-09T04:05:36;14.20;40.60
4308;DHT22;2167;53.448;9.984;2022-09-09T04:08:07;14.20;40.20
4308;DHT22;2167;53.448;9.984;2022-09-09T04:10:34;14.20;40.30
4308;DHT22;2167;53.448;9.984;2022-09-09T04:13:02;14.20;40.50
4308;DHT22;2167;53.448;9.984;2022-09-09T04:15:27;14.20;40.70
4308;DHT22;2167;53.448;9.984;2022-09-09T04:17:53;14.30;40.90
4308;DHT22;2167;53.448;9.984;2022-09-09T04:20:19;14.20;40.50
4308;DHT22;2167;53.448;9.984;2022-09-09T04:22:45;14.20;41.00
4308;DHT22;2167;53.448;9.984;2022-09-09T04:25:10;14.30;40.20
4308;DHT22;2167;53.448;9.984;2022-09-09T04:27:36;14.30;40.00
4308;DHT22;2167;53.448;9.984;2022-09-09T04:30:02;14.30;40.90
4308;DHT22;2167;53.448;9.984;2022-09-09T04:32:28;14.30;40.00
4308;DHT22;2167;53.448;9.984;2022-09-09T04:34:53;14.40;40.10
4308;DHT22;2167;53.448;9.984;2022-09-09T04:37:19;14.40;39.90
4308;DHT22;2167;53.448;9.984;2022-09-09T04:39:45;14.40;40.00
4308;DHT22;2167;53.448;9.984;2022-09-09T04:42:11;14.50;40.30
4308;DHT22;2167;53.448;9.984;2022-09-09T04:44:38;14.40;40.30
4308;DHT22;2167;53.448;9.984;2022-09-09T04:47:04;14.50;40.70
4308;DHT22;2167;53.448;9.984;2022-09-09T04:49:30;14.50;40.80
4308;DHT22;2167;53.448;9.984;2022-09-09T04:51:56;14.50;40.70
4308;DHT22;2167;53.448;9.984;2022-09-09T04:54:22;14.50;40.70
4308;DHT22;2167;53.448;9.984;2022-09-09T04:56:50;14.50;40.20
4308;DHT22;2167;53.448;9.984;2022-09-09T04:59:16;14.50;39.80
4308;DHT22;2167;53.448;9.984;2022-09-09T05:01:42;14.40;39.50
4308;DHT22;2167;53.448;9.984;2022-09-09T05:04:07;14.40;39.40
4308;DHT22;2167;53.448;9.984;2022-09-09T05:06:34;14.40;39.30
4308;DHT22;2167;53.448;9.984;2022-09-09T05:09:01;14.40;39.10
4308;DHT22;2167;53.448;9.984;2022-09-09T05:11:29;14.40;38.90
4308;DHT22;2167;53.448;9.984;2022-09-09T05:13:55;14.40;38.80
4308;DHT22;2167;53.448;9.984;2022-09-09T05:16:22;14.30;38.50
4308;DHT22;2167;53.448;9.984;2022-09-09T05:18:48;14.30;38.40
4308;DHT22;2167;53.448;9.984;2022-09-09T05:21:18;14.30;38.30
4308;DHT22;2167;53.448;9.984;2022-09-09T05:23:45;14.40;38.30
4308;DHT22;2167;53.448;9.984;2022-09-09T05:26:16;14.40;38.30
4308;DHT22;2167;53.448;9.984;2022-09-09T05:28:42;14.40;38.40
4308;DHT22;2167;53.448;9.984;2022-09-09T05:31:09;14.40;38.40
4308;DHT22;2167;53.448;9.984;2022-09-09T05:33:37;14.40;38.40
4308;DHT22;2167;53.448;9.984;2022-09-09T05:36:14;14.40;38.50
4308;DHT22;2167;53.448;9.984;2022-09-09T05:38:40;14.40;38.60
4308;DHT22;2167;53.448;9.984;2022-09-09T05:41:07;14.50;38.90
4308;DHT22;2167;53.448;9.984;2022-09-09T05:43:33;14.50;39.00
4308;DHT22;2167;53.448;9.984;2022-09-09T05:46:07;14.50;39.10
4308;DHT22;2167;53.448;9.984;2022-09-09T05:48:38;14.50;39.20
4308;DHT22;2167;53.448;9.984;2022-09-09T05:51:05;14.60;39.40
4308;DHT22;2167;53.448;9.984;2022-09-09T05:53:35;14.60;39.50
4308;DHT22;2167;53.448;9.984;2022-09-09T05:58:33;14.70;39.60
4308;DHT22;2167;53.448;9.984;2022-09-09T06:01:07;14.70;39.60
4308;DHT22;2167;53.448;9.984;2022-09-09T06:03:37;14.80;39.50
4308;DHT22;2167;53.448;9.984;2022-09-09T06:06:10;14.80;39.60
4308;DHT22;2167;53.448;9.984;2022-09-09T06:08:38;14.80;39.60
4308;DHT22;2167;53.448;9.984;2022-09-09T06:11:07;14.90;39.70
4308;DHT22;2167;53.448;9.984;2022-09-09T06:13:33;14.90;39.80
4308;DHT22;2167;53.448;9.984;2022-09-09T06:15:59;14.90;39.90
4308;DHT22;2167;53.448;9.984;2022-09-09T06:18:25;14.90;39.90
4308;DHT22;2167;53.448;9.984;2022-09-09T06:20:55;15.00;39.90
4308;DHT22;2167;53.448;9.984;2022-09-09T06:23:21;15.00;39.90
4308;DHT22;2167;53.448;9.984;2022-09-09T06:25:47;15.10;40.00
4308;DHT22;2167;53.448;9.984;2022-09-09T06:28:12;15.10;39.90
4308;DHT22;2167;53.448;9.984;2022-09-09T06:30:38;15.20;40.10
4308;DHT22;2167;53.448;9.984;2022-09-09T06:33:05;15.20;40.00
4308;DHT22;2167;53.448;9.984;2022-09-09T06:35:31;15.20;40.40
4308;DHT22;2167;53.448;9.984;2022-09-09T06:37:56;15.20;40.60
4308;DHT22;2167;53.448;9.984;2022-09-09T06:40:24;15.20;41.20
4308;DHT22;2167;53.448;9.984;2022-09-09T06:42:49;15.30;41.60
4308;DHT22;2167;53.448;9.984;2022-09-09T06:45:15;15.30;41.50
4308;DHT22;2167;53.448;9.984;2022-09-09T06:47:41;15.40;41.50
4308;DHT22;2167;53.448;9.984;2022-09-09T06:50:07;15.40;41.60
4308;DHT22;2167;53.448;9.984;2022-09-09T06:52:37;15.40;41.90
4308;DHT22;2167;53.448;9.984;2022-09-09T06:58:34;15.60;42.70
4308;DHT22;2167;53.448;9.984;2022-09-09T07:08:02;15.60;41.90
4308;DHT22;2167;53.448;9.984;2022-09-09T07:13:41;15.70;42.10
4308;DHT22;2167;53.448;9.984;2022-09-09T07:16:10;15.70;42.50
4308;DHT22;2167;53.448;9.984;2022-09-09T07:18:35;15.80;43.00
4308;DHT22;2167;53.448;9.984;2022-09-09T07:21:02;15.80;43.00
4308;DHT22;2167;53.448;9.984;2022-09-09T07:23:29;15.80;43.30
4308;DHT22;2167;53.448;9.984;2022-09-09T07:25:58;15.90;43.40
4308;DHT22;2167;53.448;9.984;2022-09-09T07:28:25;15.90;43.70
4308;DHT22;2167;53.448;9.984;2022-09-09T07:31:00;16.00;44.10
4308;DHT22;2167;53.448;9.984;2022-09-09T07:33:30;16.00;44.10
4308;DHT22;2167;53.448;9.984;2022-09-09T07:36:09;16.10;44.40
4308;DHT22;2167;53.448;9.984;2022-09-09T07:38:43;16.20;44.00
4308;DHT22;2167;53.448;9.984;2022-09-09T07:41:33;16.20;43.80
4308;DHT22;2167;53.448;9.984;2022-09-09T07:43:59;16.20;43.50
4308;DHT22;2167;53.448;9.984;2022-09-09T07:46:26;16.10;43.70
4308;DHT22;2167;53.448;9.984;2022-09-09T07:48:56;16.20;44.30
4308;DHT22;2167;53.448;9.984;2022-09-09T07:51:30;16.20;43.50
4308;DHT22;2167;53.448;9.984;2022-09-09T07:53:59;16.20;43.10
4308;DHT22;2167;53.448;9.984;2022-09-09T07:56:26;16.20;43.40
4308;DHT22;2167;53.448;9.984;2022-09-09T07:58:53;16.20;43.80
4308;DHT22;2167;53.448;9.984;2022-09-09T08:01:21;16.30;43.80
4308;DHT22;2167;53.448;9.984;2022-09-09T08:03:51;16.30;43.90
4308;DHT22;2167;53.448;9.984;2022-09-09T08:06:18;16.40;44.00
4308;DHT22;2167;53.448;9.984;2022-09-09T08:08:43;16.50;44.60
4308;DHT22;2167;53.448;9.984;2022-09-09T08:11:14;16.70;44.30
4308;DHT22;2167;53.448;9.984;2022-09-09T08:13:41;16.80;43.70
4308;DHT22;2167;53.448;9.984;2022-09-09T08:16:09;16.80;43.20
4308;DHT22;2167;53.448;9.984;2022-09-09T08:18:35;16.80;41.20
4308;DHT22;2167;53.448;9.984;2022-09-09T08:21:11;16.90;41.20
4308;DHT22;2167;53.448;9.984;2022-09-09T08:23:41;16.80;41.10
4308;DHT22;2167;53.448;9.984;2022-09-09T08:26:12;16.90;41.80
4308;DHT22;2167;53.448;9.984;2022-09-09T08:28:39;16.90;41.50
4308;DHT22;2167;53.448;9.984;2022-09-09T08:31:11;17.00;40.70
4308;DHT22;2167;53.448;9.984;2022-09-09T08:33:37;17.00;41.00
4308;DHT22;2167;53.448;9.984;2022-09-09T08:36:04;17.10;40.90
4308;DHT22;2167;53.448;9.984;2022-09-09T08:38:30;17.10;40.90
4308;DHT22;2167;53.448;9.984;2022-09-09T08:41:04;17.20;40.40
4308;DHT22;2167;53.448;9.984;2022-09-09T08:43:33;17.30;40.50
4308;DHT22;2167;53.448;9.984;2022-09-09T08:46:07;17.40;39.70
4308;DHT22;2167;53.448;9.984;2022-09-09T08:49:11;17.50;39.80
4308;DHT22;2167;53.448;9.984;2022-09-09T08:51:27;17.60;39.50
4308;DHT22;2167;53.448;9.984;2022-09-09T08:53:57;17.70;40.10
4308;DHT22;2167;53.448;9.984;2022-09-09T08:56:26;17.80;40.30
4308;DHT22;2167;53.448;9.984;2022-09-09T08:58:54;18.00;40.90
4308;DHT22;2167;53.448;9.984;2022-09-09T09:06:55;18.40;36.90
4308;DHT22;2167;53.448;9.984;2022-09-09T09:09:50;18.60;36.30
4308;DHT22;2167;53.448;9.984;2022-09-09T09:12:23;18.70;35.70
4308;DHT22;2167;53.448;9.984;2022-09-09T09:14:49;18.80;34.60
4308;DHT22;2167;53.448;9.984;2022-09-09T09:17:18;18.90;35.30
4308;DHT22;2167;53.448;9.984;2022-09-09T09:19:45;19.10;34.20
4308;DHT22;2167;53.448;9.984;2022-09-09T09:22:20;19.20;31.40
4308;DHT22;2167;53.448;9.984;2022-09-09T09:24:54;19.30;29.90
4308;DHT22;2167;53.448;9.984;2022-09-09T09:27:35;19.40;27.30
4308;DHT22;2167;53.448;9.984;2022-09-09T09:30:13;19.40;26.70
4308;DHT22;2167;53.448;9.984;2022-09-09T09:32:44;19.40;27.30
4308;DHT22;2167;53.448;9.984;2022-09-09T09:35:12;19.50;25.20
4308;DHT22;2167;53.448;9.984;2022-09-09T09:37:40;19.40;24.10
4308;DHT22;2167;53.448;9.984;2022-09-09T09:40:24;19.40;25.50
4308;DHT22;2167;53.448;9.984;2022-09-09T09:42:58;19.50;26.80
4308;DHT22;2167;53.448;9.984;2022-09-09T09:45:44;19.50;27.10
4308;DHT22;2167;53.448;9.984;2022-09-09T09:48:11;19.60;29.30
4308;DHT22;2167;53.448;9.984;2022-09-09T09:50:59;19.80;30.00
4308;DHT22;2167;53.448;9.984;2022-09-09T09:53:33;20.00;24.70
4308;DHT22;2167;53.448;9.984;2022-09-09T09:56:11;20.20;26.10
4308;DHT22;2167;53.448;9.984;2022-09-09T10:01:22;20.80;23.30
4308;DHT22;2167;53.448;9.984;2022-09-09T10:04:00;21.10;19.00
4308;DHT22;2167;53.448;9.984;2022-09-09T10:06:35;21.30;16.60
4308;DHT22;2167;53.448;9.984;2022-09-09T10:09:02;21.50;15.90
4308;DHT22;2167;53.448;9.984;2022-09-09T10:14:30;21.80;12.30
4308;DHT22;2167;53.448;9.984;2022-09-09T10:20:32;22.30;9.00
4308;DHT22;2167;53.448;9.984;2022-09-09T10:23:25;22.30;5.90
4308;DHT22;2167;53.448;9.984;2022-09-09T10:29:15;22.40;6.00
4308;DHT22;2167;53.448;9.984;2022-09-09T10:35:12;22.60;5.90
4308;DHT22;2167;53.448;9.984;2022-09-09T10:37:31;22.80;4.10
4308;DHT22;2167;53.448;9.984;2022-09-09T10:40:38;22.90;2.90
4308;DHT22;2167;53.448;9.984;2022-09-09T10:43:23;23.00;1.70
4308;DHT22;2167;53.448;9.984;2022-09-09T10:51:51;22.60;1.10
4308;DHT22;2167;53.448;9.984;2022-09-09T10:57:53;22.50;1.00
4308;DHT22;2167;53.448;9.984;2022-09-09T11:02:53;22.50;2.80
4308;DHT22;2167;53.448;9.984;2022-09-09T11:05:43;22.50;1.00
4308;DHT22;2167;53.448;9.984;2022-09-09T11:08:20;22.30;1.00
4308;DHT22;2167;53.448;9.984;2022-09-09T11:10:58;22.10;2.30
4308;DHT22;2167;53.448;9.984;2022-09-09T11:19:16;21.90;6.60
4308;DHT22;2167;53.448;9.984;2022-09-09T11:21:49;21.80;2.30
4308;DHT22;2167;53.448;9.984;2022-09-09T11:24:22;21.70;2.40
4308;DHT22;2167;53.448;9.984;2022-09-09T11:27:07;21.70;4.10
4308;DHT22;2167;53.448;9.984;2022-09-09T11:32:58;21.60;4.70
4308;DHT22;2167;53.448;9.984;2022-09-09T11:35:58;21.60;4.90
4308;DHT22;2167;53.448;9.984;2022-09-09T11:41:35;21.70;9.30
4308;DHT22;2167;53.448;9.984;2022-09-09T11:44:16;22.00;7.80
4308;DHT22;2167;53.448;9.984;2022-09-09T11:46:46;22.40;3.30
4308;DHT22;2167;53.448;9.984;2022-09-09T11:49:40;22.60;3.20
4308;DHT22;2167;53.448;9.984;2022-09-09T11:52:23;22.80;1.40
4308;DHT22;2167;53.448;9.984;2022-09-09T11:54:51;22.90;1.00
4308;DHT22;2167;53.448;9.984;2022-09-09T11:57:27;22.70;1.00
4308;DHT22;2167;53.448;9.984;2022-09-09T11:59:56;22.50;1.00
4308;DHT22;2167;53.448;9.984;2022-09-09T12:02:27;22.40;1.00
4308;DHT22;2167;53.448;9.984;2022-09-09T12:12:44;21.90;4.00
4308;DHT22;2167;53.448;9.984;2022-09-09T12:17:46;21.70;5.20
4308;DHT22;2167;53.448;9.984;2022-09-09T12:20:27;21.70;5.60
4308;DHT22;2167;53.448;9.984;2022-09-09T12:23:21;21.60;5.90
4308;DHT22;2167;53.448;9.984;2022-09-09T12:31:51;21.20;4.00
4308;DHT22;2167;53.448;9.984;2022-09-09T12:34:35;21.10;6.40
4308;DHT22;2167;53.448;9.984;2022-09-09T12:40:04;21.00;14.60
4308;DHT22;2167;53.448;9.984;2022-09-09T12:42:31;20.80;18.30
4308;DHT22;2167;53.448;9.984;2022-09-09T12:45:03;20.60;21.40
4308;DHT22;2167;53.448;9.984;2022-09-09T12:47:37;20.50;24.80
4308;DHT22;2167;53.448;9.984;2022-09-09T12:50:04;20.50;27.00
4308;DHT22;2167;53.448;9.984;2022-09-09T12:52:35;20.40;27.70
4308;DHT22;2167;53.448;9.984;2022-09-09T12:55:04;20.20;27.90
4308;DHT22;2167;53.448;9.984;2022-09-09T12:57:36;20.10;28.20
4308;DHT22;2167;53.448;9.984;2022-09-09T13:00:17;20.10;28.50
4308;DHT22;2167;53.448;9.984;2022-09-09T13:03:13;20.00;28.70
4308;DHT22;2167;53.448;9.984;2022-09-09T13:05:42;19.90;29.00
4308;DHT22;2167;53.448;9.984;2022-09-09T13:08:12;19.80;30.80
4308;DHT22;2167;53.448;9.984;2022-09-09T13:10:43;19.80;30.70
4308;DHT22;2167;53.448;9.984;2022-09-09T13:13:19;19.60;31.50
4308;DHT22;2167;53.448;9.984;2022-09-09T13:15:56;19.60;32.70
4308;DHT22;2167;53.448;9.984;2022-09-09T13:18:28;19.60;33.40
4308;DHT22;2167;53.448;9.984;2022-09-09T13:20:54;19.40;33.10
4308;DHT22;2167;53.448;9.984;2022-09-09T13:23:27;19.40;34.60
4308;DHT22;2167;53.448;9.984;2022-09-09T13:26:05;19.20;34.50
4308;DHT22;2167;53.448;9.984;2022-09-09T13:28:33;19.20;34.90
4308;DHT22;2167;53.448;9.984;2022-09-09T13:31:05;19.20;35.10
4308;DHT22;2167;53.448;9.984;2022-09-09T13:33:36;19.20;35.40
4308;DHT22;2167;53.448;9.984;2022-09-09T13:36:05;19.20;34.80
4308;DHT22;2167;53.448;9.984;2022-09-09T13:38:35;19.20;34.60
4308;DHT22;2167;53.448;9.984;2022-09-09T13:41:04;19.20;34.80
4308;DHT22;2167;53.448;9.984;2022-09-09T13:43:34;19.20;34.90
4308;DHT22;2167;53.448;9.984;2022-09-09T13:46:06;19.10;35.00
4308;DHT22;2167;53.448;9.984;2022-09-09T13:48:57;19.00;35.70
4308;DHT22;2167;53.448;9.984;2022-09-09T13:51:43;19.00;37.10
4308;DHT22;2167;53.448;9.984;2022-09-09T13:54:13;19.00;37.30
4308;DHT22;2167;53.448;9.984;2022-09-09T13:56:39;18.80;37.20
4308;DHT22;2167;53.448;9.984;2022-09-09T13:59:17;18.80;37.00
4308;DHT22;2167;53.448;9.984;2022-09-09T14:01:45;18.70;37.10
4308;DHT22;2167;53.448;9.984;2022-09-09T14:04:11;18.60;37.30
4308;DHT22;2167;53.448;9.984;2022-09-09T14:06:37;18.50;38.10
4308;DHT22;2167;53.448;9.984;2022-09-09T14:09:05;18.40;37.80
4308;DHT22;2167;53.448;9.984;2022-09-09T14:11:31;18.30;36.90
4308;DHT22;2167;53.448;9.984;2022-09-09T14:13:57;18.10;36.50
4308;DHT22;2167;53.448;9.984;2022-09-09T14:16:22;18.00;36.30
4308;DHT22;2167;53.448;9.984;2022-09-09T14:18:48;17.90;36.70
4308;DHT22;2167;53.448;9.984;2022-09-09T14:21:14;17.90;37.50
4308;DHT22;2167;53.448;9.984;2022-09-09T14:23:41;17.80;38.30
4308;DHT22;2167;53.448;9.984;2022-09-09T14:26:07;17.80;37.80
4308;DHT22;2167;53.448;9.984;2022-09-09T14:28:34;17.80;37.40
4308;DHT22;2167;53.448;9.984;2022-09-09T14:31:01;17.80;37.80
4308;DHT22;2167;53.448;9.984;2022-09-09T14:33:28;17.80;38.80
4308;DHT22;2167;53.448;9.984;2022-09-09T14:36:00;17.90;37.80
4308;DHT22;2167;53.448;9.984;2022-09-09T14:38:31;17.80;38.30
4308;DHT22;2167;53.448;9.984;2022-09-09T14:40:59;17.80;38.60
4308;DHT22;2167;53.448;9.984;2022-09-09T14:43:25;17.90;38.40
4308;DHT22;2167;53.448;9.984;2022-09-09T14:45:51;17.80;37.80
4308;DHT22;2167;53.448;9.984;2022-09-09T14:48:17;17.80;37.90
4308;DHT22;2167;53.448;9.984;2022-09-09T14:50:43;17.80;38.10
4308;DHT22;2167;53.448;9.984;2022-09-09T14:53:09;17.90;38.20
4308;DHT22;2167;53.448;9.984;2022-09-09T14:55:36;17.90;38.00
4308;DHT22;2167;53.448;9.984;2022-09-09T14:58:02;17.90;37.80
4308;DHT22;2167;53.448;9.984;2022-09-09T15:00:28;17.90;37.00
4308;DHT22;2167;53.448;9.984;2022-09-09T15:02:54;17.90;37.00
4308;DHT22;2167;53.448;9.984;2022-09-09T15:05:20;18.00;37.10
4308;DHT22;2167;53.448;9.984;2022-09-09T15:07:46;18.00;37.30
4308;DHT22;2167;53.448;9.984;2022-09-09T15:10:13;18.00;37.20
4308;DHT22;2167;53.448;9.984;2022-09-09T15:12:39;18.10;37.00
4308;DHT22;2167;53.448;9.984;2022-09-09T15:15:05;18.00;35.90
4308;DHT22;2167;53.448;9.984;2022-09-09T15:17:31;18.10;35.40
4308;DHT22;2167;53.448;9.984;2022-09-09T15:19:56;18.10;35.50
4308;DHT22;2167;53.448;9.984;2022-09-09T15:22:23;18.00;35.80
4308;DHT22;2167;53.448;9.984;2022-09-09T15:24:49;18.10;35.90
4308;DHT22;2167;53.448;9.984;2022-09-09T15:27:15;18.10;35.50
4308;DHT22;2167;53.448;9.984;2022-09-09T15:29:41;18.10;35.20
4308;DHT22;2167;53.448;9.984;2022-09-09T15:32:07;18.10;35.90
4308;DHT22;2167;53.448;9.984;2022-09-09T15:34:33;18.20;36.60
4308;DHT22;2167;53.448;9.984;2022-09-09T15:36:59;18.20;36.80
4308;DHT22;2167;53.448;9.984;2022-09-09T15:39:27;18.30;37.40
4308;DHT22;2167;53.448;9.984;2022-09-09T15:41:53;18.30;36.90
4308;DHT22;2167;53.448;9.984;2022-09-09T15:44:19;18.30;36.00
4308;DHT22;2167;53.448;9.984;2022-09-09T15:46:48;18.30;33.70
4308;DHT22;2167;53.448;9.984;2022-09-09T15:49:15;18.30;34.10
4308;DHT22;2167;53.448;9.984;2022-09-09T15:51:43;18.40;33.40
4308;DHT22;2167;53.448;9.984;2022-09-09T15:54:10;18.30;32.00
4308;DHT22;2167;53.448;9.984;2022-09-09T15:56:37;18.40;31.90
4308;DHT22;2167;53.448;9.984;2022-09-09T15:59:03;18.30;29.30
4308;DHT22;2167;53.448;9.984;2022-09-09T16:01:29;18.30;29.90
4308;DHT22;2167;53.448;9.984;2022-09-09T16:03:56;18.30;30.00
4308;DHT22;2167;53.448;9.984;2022-09-09T16:06:24;18.30;30.80
4308;DHT22;2167;53.448;9.984;2022-09-09T16:08:51;18.50;31.10
4308;DHT22;2167;53.448;9.984;2022-09-09T16:11:38;18.60;30.50
4308;DHT22;2167;53.448;9.984;2022-09-09T16:14:04;18.60;29.10
4308;DHT22;2167;53.448;9.984;2022-09-09T16:16:32;18.70;29.00
4308;DHT22;2167;53.448;9.984;2022-09-09T16:18:59;18.70;27.30
4308;DHT22;2167;53.448;9.984;2022-09-09T16:21:28;18.60;26.50
4308;DHT22;2167;53.448;9.984;2022-09-09T16:23:55;18.50;26.80
4308;DHT22;2167;53.448;9.984;2022-09-09T16:26:22;18.40;26.20
4308;DHT22;2167;53.448;9.984;2022-09-09T16:28:48;18.40;26.10
4308;DHT22;2167;53.448;9.984;2022-09-09T16:31:19;18.30;27.00
4308;DHT22;2167;53.448;9.984;2022-09-09T16:33:46;18.10;27.50
4308;DHT22;2167;53.448;9.984;2022-09-09T16:36:14;18.00;28.60
4308;DHT22;2167;53.448;9.984;2022-09-09T16:38:41;18.00;29.30
4308;DHT22;2167;53.448;9.984;2022-09-09T16:41:10;18.00;29.50
4308;DHT22;2167;53.448;9.984;2022-09-09T16:43:37;18.00;29.90
4308;DHT22;2167;53.448;9.984;2022-09-09T16:46:10;17.90;31.00
4308;DHT22;2167;53.448;9.984;2022-09-09T16:48:36;17.90;32.10
4308;DHT22;2167;53.448;9.984;2022-09-09T16:51:07;17.90;32.90
4308;DHT22;2167;53.448;9.984;2022-09-09T16:53:34;17.90;33.20
4308;DHT22;2167;53.448;9.984;2022-09-09T16:56:07;17.90;33.20
4308;DHT22;2167;53.448;9.984;2022-09-09T16:58:33;17.90;33.80
4308;DHT22;2167;53.448;9.984;2022-09-09T17:01:02;17.90;33.90
4308;DHT22;2167;53.448;9.984;2022-09-09T17:03:28;17.90;34.10
4308;DHT22;2167;53.448;9.984;2022-09-09T17:05:54;17.90;34.50
4308;DHT22;2167;53.448;9.984;2022-09-09T17:08:20;17.90;34.50
4308;DHT22;2167;53.448;9.984;2022-09-09T17:10:45;17.90;34.60
4308;DHT22;2167;53.448;9.984;2022-09-09T17:13:13;17.90;34.60
4308;DHT22;2167;53.448;9.984;2022-09-09T17:15:42;17.90;34.60
4308;DHT22;2167;53.448;9.984;2022-09-09T17:18:12;17.90;34.70
4308;DHT22;2167;53.448;9.984;2022-09-09T17:20:38;17.90;34.80
4308;DHT22;2167;53.448;9.984;2022-09-09T17:23:08;17.80;34.40
4308;DHT22;2167;53.448;9.984;2022-09-09T17:25:35;17.80;34.10
4308;DHT22;2167;53.448;9.984;2022-09-09T17:28:01;17.80;34.10
4308;DHT22;2167;53.448;9.984;2022-09-09T17:30:29;17.80;34.10
4308;DHT22;2167;53.448;9.984;2022-09-09T17:32:56;17.70;33.10
4308;DHT22;2167;53.448;9.984;2022-09-09T17:35:22;17.70;32.60
4308;DHT22;2167;53.448;9.984;2022-09-09T17:37:48;17.60;32.60
4308;DHT22;2167;53.448;9.984;2022-09-09T17:40:13;17.50;32.90
4308;DHT22;2167;53.448;9.984;2022-09-09T17:42:39;17.50;33.20
4308;DHT22;2167;53.448;9.984;2022-09-09T17:45:06;17.50;33.00
4308;DHT22;2167;53.448;9.984;2022-09-09T17:47:32;17.40;33.20
4308;DHT22;2167;53.448;9.984;2022-09-09T17:49:57;17.40;33.50
4308;DHT22;2167;53.448;9.984;2022-09-09T17:52:23;17.40;33.00
4308;DHT22;2167;53.448;9.984;2022-09-09T17:54:49;17.30;32.20
4308;DHT22;2167;53.448;9.984;2022-09-09T17:57:15;17.30;32.30
4308;DHT22;2167;53.448;9.984;2022-09-09T17:59:44;17.20;32.80
4308;DHT22;2167;53.448;9.984;2022-09-09T18:02:11;17.10;34.00
4308;DHT22;2167;53.448;9.984;2022-09-09T18:04:37;17.00;33.80
4308;DHT22;2167;53.448;9.984;2022-09-09T18:07:03;16.90;34.90
4308;DHT22;2167;53.448;9.984;2022-09-09T18:09:30;16.80;35.50
4308;DHT22;2167;53.448;9.984;2022-09-09T18:11:57;16.80;35.50
4308;DHT22;2167;53.448;9.984;2022-09-09T18:14:28;16.70;35.70